Philadelphia, Pennsylvania
Traffic Map
Current Weather Conditions
Philadelphia, Pennsylvania
Clear
Clear

Feels Like: 6°
Wind Chill: Ceiling: Unl
Heat Index: Visibility: 10mi
Dew Point: -7° Wind: 8mph
Humidity: 34% Direction: 80° (E)
Pressure: 30.38in Gusts: 0mph
Raw Report DataKPHL 210154Z 08007KT 10SM CLR 08/M07 A3038 RMK AO2 SLP287 T00831067
Traffic Incident Summary
Active as of:
Severity:
Category:
InformationThere was an issue retrieving the traffic information for this location. Please try a different location or try again shortly.
Advertisements
At Last! Intellicast now available for iPhone and Android